sensor_id;sensor_type;location;lat;lon;timestamp;temperature;humidity
13268;DHT22;6702;47.068;15.458;2022-09-03T00:02:38;17.40;99.90
13268;DHT22;6702;47.068;15.458;2022-09-03T00:05:48;17.30;99.90
13268;DHT22;6702;47.068;15.458;2022-09-03T00:08:57;17.30;99.90
13268;DHT22;6702;47.068;15.458;2022-09-03T00:12:08;17.20;99.90
13268;DHT22;6702;47.068;15.458;2022-09-03T00:15:14;17.10;99.90
13268;DHT22;6702;47.068;15.458;2022-09-03T00:18:21;17.10;99.90
13268;DHT22;6702;47.068;15.458;2022-09-03T00:21:34;17.00;99.90
13268;DHT22;6702;47.068;15.458;2022-09-03T00:24:39;17.00;99.90
13268;DHT22;6702;47.068;15.458;2022-09-03T00:27:49;17.00;99.90
13268;DHT22;6702;47.068;15.458;2022-09-03T00:31:03;17.00;99.90
13268;DHT22;6702;47.068;15.458;2022-09-03T00:34:12;16.90;99.90
13268;DHT22;6702;47.068;15.458;2022-09-03T00:37:17;16.90;99.90
13268;DHT22;6702;47.068;15.458;2022-09-03T00:40:32;16.90;99.90
13268;DHT22;6702;47.068;15.458;2022-09-03T00:43:51;16.80;99.90
13268;DHT22;6702;47.068;15.458;2022-09-03T00:47:01;16.80;99.90
13268;DHT22;6702;47.068;15.458;2022-09-03T00:50:11;16.70;99.90
13268;DHT22;6702;47.068;15.458;2022-09-03T00:53:22;16.70;99.90
13268;DHT22;6702;47.068;15.458;2022-09-03T00:56:33;16.70;99.90
13268;DHT22;6702;47.068;15.458;2022-09-03T00:59:46;16.60;99.90
13268;DHT22;6702;47.068;15.458;2022-09-03T01:03:00;16.60;99.90
13268;DHT22;6702;47.068;15.458;2022-09-03T01:06:14;16.60;99.90
13268;DHT22;6702;47.068;15.458;2022-09-03T01:09:30;16.60;99.90
13268;DHT22;6702;47.068;15.458;2022-09-03T01:12:48;16.50;99.90
13268;DHT22;6702;47.068;15.458;2022-09-03T01:16:08;16.50;99.90
13268;DHT22;6702;47.068;15.458;2022-09-03T01:19:29;16.50;99.90
13268;DHT22;6702;47.068;15.458;2022-09-03T01:23:04;16.40;99.90
13268;DHT22;6702;47.068;15.458;2022-09-03T01:26:29;16.40;99.90
13268;DHT22;6702;47.068;15.458;2022-09-03T01:29:41;16.40;99.90
13268;DHT22;6702;47.068;15.458;2022-09-03T01:32:55;16.40;99.90
13268;DHT22;6702;47.068;15.458;2022-09-03T01:36:06;16.30;99.90
13268;DHT22;6702;47.068;15.458;2022-09-03T01:39:17;16.30;99.90
13268;DHT22;6702;47.068;15.458;2022-09-03T01:42:31;16.30;99.90
13268;DHT22;6702;47.068;15.458;2022-09-03T01:45:43;16.20;99.90
13268;DHT22;6702;47.068;15.458;2022-09-03T01:48:57;16.20;99.90
13268;DHT22;6702;47.068;15.458;2022-09-03T01:52:06;16.00;99.90
13268;DHT22;6702;47.068;15.458;2022-09-03T01:55:24;16.00;99.90
13268;DHT22;6702;47.068;15.458;2022-09-03T01:58:34;16.00;99.90
13268;DHT22;6702;47.068;15.458;2022-09-03T02:01:44;16.00;99.90
13268;DHT22;6702;47.068;15.458;2022-09-03T02:04:59;15.90;99.90
13268;DHT22;6702;47.068;15.458;2022-09-03T02:08:05;15.90;99.90
13268;DHT22;6702;47.068;15.458;2022-09-03T02:11:09;15.90;99.90
13268;DHT22;6702;47.068;15.458;2022-09-03T02:14:13;15.90;99.90
13268;DHT22;6702;47.068;15.458;2022-09-03T02:17:17;15.90;99.90
13268;DHT22;6702;47.068;15.458;2022-09-03T02:20:22;15.90;99.90
13268;DHT22;6702;47.068;15.458;2022-09-03T02:23:27;15.80;99.90
13268;DHT22;6702;47.068;15.458;2022-09-03T02:26:31;15.80;99.90
13268;DHT22;6702;47.068;15.458;2022-09-03T02:29:34;15.80;99.90
13268;DHT22;6702;47.068;15.458;2022-09-03T02:32:39;15.80;99.90
13268;DHT22;6702;47.068;15.458;2022-09-03T02:35:42;15.80;99.90
13268;DHT22;6702;47.068;15.458;2022-09-03T02:38:46;15.80;99.90
13268;DHT22;6702;47.068;15.458;2022-09-03T02:41:50;15.70;99.90
13268;DHT22;6702;47.068;15.458;2022-09-03T02:45:01;15.70;99.90
13268;DHT22;6702;47.068;15.458;2022-09-03T02:48:07;15.60;99.90
13268;DHT22;6702;47.068;15.458;2022-09-03T02:51:11;15.60;99.90
13268;DHT22;6702;47.068;15.458;2022-09-03T02:54:15;15.60;99.90
13268;DHT22;6702;47.068;15.458;2022-09-03T02:57:22;15.50;99.90
13268;DHT22;6702;47.068;15.458;2022-09-03T03:00:28;15.50;99.90
13268;DHT22;6702;47.068;15.458;2022-09-03T03:03:33;15.50;99.90
13268;DHT22;6702;47.068;15.458;2022-09-03T03:06:36;15.50;99.90
13268;DHT22;6702;47.068;15.458;2022-09-03T03:09:39;15.40;99.90
13268;DHT22;6702;47.068;15.458;2022-09-03T03:12:42;15.50;99.90
13268;DHT22;6702;47.068;15.458;2022-09-03T03:15:46;15.40;99.90
13268;DHT22;6702;47.068;15.458;2022-09-03T03:18:51;15.40;99.90
13268;DHT22;6702;47.068;15.458;2022-09-03T03:21:54;15.40;99.90
13268;DHT22;6702;47.068;15.458;2022-09-03T03:24:57;15.40;99.90
13268;DHT22;6702;47.068;15.458;2022-09-03T03:28:01;15.40;99.90
13268;DHT22;6702;47.068;15.458;2022-09-03T03:31:06;15.30;99.90
13268;DHT22;6702;47.068;15.458;2022-09-03T03:34:10;15.30;99.90
13268;DHT22;6702;47.068;15.458;2022-09-03T03:37:14;15.20;99.90
13268;DHT22;6702;47.068;15.458;2022-09-03T03:40:17;15.20;99.90
13268;DHT22;6702;47.068;15.458;2022-09-03T03:43:20;15.20;99.90
13268;DHT22;6702;47.068;15.458;2022-09-03T03:46:27;15.20;99.90
13268;DHT22;6702;47.068;15.458;2022-09-03T03:49:32;15.20;99.90
13268;DHT22;6702;47.068;15.458;2022-09-03T03:52:35;15.20;99.90
13268;DHT22;6702;47.068;15.458;2022-09-03T03:55:38;15.10;99.90
13268;DHT22;6702;47.068;15.458;2022-09-03T03:58:41;15.10;99.90
13268;DHT22;6702;47.068;15.458;2022-09-03T04:01:45;15.10;99.90
13268;DHT22;6702;47.068;15.458;2022-09-03T04:04:51;15.10;99.90
13268;DHT22;6702;47.068;15.458;2022-09-03T04:07:54;15.10;99.90
13268;DHT22;6702;47.068;15.458;2022-09-03T04:10:59;15.00;99.90
13268;DHT22;6702;47.068;15.458;2022-09-03T04:14:02;15.00;99.90
13268;DHT22;6702;47.068;15.458;2022-09-03T04:17:05;15.00;99.90
13268;DHT22;6702;47.068;15.458;2022-09-03T04:20:10;15.00;99.90
13268;DHT22;6702;47.068;15.458;2022-09-03T04:23:13;15.00;99.90
13268;DHT22;6702;47.068;15.458;2022-09-03T04:26:18;15.00;99.90
13268;DHT22;6702;47.068;15.458;2022-09-03T04:29:21;14.90;99.90
13268;DHT22;6702;47.068;15.458;2022-09-03T04:32:26;14.90;99.90
13268;DHT22;6702;47.068;15.458;2022-09-03T04:35:48;15.00;99.90
13268;DHT22;6702;47.068;15.458;2022-09-03T04:38:53;15.00;99.90
13268;DHT22;6702;47.068;15.458;2022-09-03T04:41:56;14.90;99.90
13268;DHT22;6702;47.068;15.458;2022-09-03T04:45:00;14.90;99.90
13268;DHT22;6702;47.068;15.458;2022-09-03T04:48:04;14.90;99.90
13268;DHT22;6702;47.068;15.458;2022-09-03T04:51:14;14.90;99.90
13268;DHT22;6702;47.068;15.458;2022-09-03T04:54:17;14.90;99.90
13268;DHT22;6702;47.068;15.458;2022-09-03T04:57:20;14.90;99.90
13268;DHT22;6702;47.068;15.458;2022-09-03T05:00:24;14.90;99.90
13268;DHT22;6702;47.068;15.458;2022-09-03T05:03:27;14.90;99.90
13268;DHT22;6702;47.068;15.458;2022-09-03T05:06:33;15.00;99.90
13268;DHT22;6702;47.068;15.458;2022-09-03T05:09:37;15.10;99.90
13268;DHT22;6702;47.068;15.458;2022-09-03T05:12:40;15.10;99.90
13268;DHT22;6702;47.068;15.458;2022-09-03T05:15:44;15.20;99.90
13268;DHT22;6702;47.068;15.458;2022-09-03T05:18:50;15.30;99.90
13268;DHT22;6702;47.068;15.458;2022-09-03T05:21:55;15.40;99.90
13268;DHT22;6702;47.068;15.458;2022-09-03T05:24:58;15.60;99.90
13268;DHT22;6702;47.068;15.458;2022-09-03T05:28:01;15.70;99.90
13268;DHT22;6702;47.068;15.458;2022-09-03T05:31:07;15.80;99.90
13268;DHT22;6702;47.068;15.458;2022-09-03T05:34:11;15.90;99.90
13268;DHT22;6702;47.068;15.458;2022-09-03T05:37:20;16.00;99.90
13268;DHT22;6702;47.068;15.458;2022-09-03T05:40:24;16.00;99.90
13268;DHT22;6702;47.068;15.458;2022-09-03T05:43:28;16.00;99.90
13268;DHT22;6702;47.068;15.458;2022-09-03T05:46:32;16.00;99.90
13268;DHT22;6702;47.068;15.458;2022-09-03T05:49:38;16.00;99.90
13268;DHT22;6702;47.068;15.458;2022-09-03T05:52:42;16.00;99.90
13268;DHT22;6702;47.068;15.458;2022-09-03T05:55:54;16.00;99.90
13268;DHT22;6702;47.068;15.458;2022-09-03T05:58:59;16.00;99.90
13268;DHT22;6702;47.068;15.458;2022-09-03T06:02:04;16.20;99.90
13268;DHT22;6702;47.068;15.458;2022-09-03T06:05:07;16.40;99.90
13268;DHT22;6702;47.068;15.458;2022-09-03T06:08:12;16.80;99.90
13268;DHT22;6702;47.068;15.458;2022-09-03T06:11:15;17.50;99.90
13268;DHT22;6702;47.068;15.458;2022-09-03T06:14:19;18.70;99.90
13268;DHT22;6702;47.068;15.458;2022-09-03T06:17:22;19.70;99.90
13268;DHT22;6702;47.068;15.458;2022-09-03T06:20:26;20.00;99.80
13268;DHT22;6702;47.068;15.458;2022-09-03T06:23:31;20.70;98.60
13268;DHT22;6702;47.068;15.458;2022-09-03T06:26:37;21.70;97.00
13268;DHT22;6702;47.068;15.458;2022-09-03T06:29:43;22.90;94.70
13268;DHT22;6702;47.068;15.458;2022-09-03T06:32:47;24.10;91.20
13268;DHT22;6702;47.068;15.458;2022-09-03T06:35:53;24.70;87.60
13268;DHT22;6702;47.068;15.458;2022-09-03T06:38:59;25.00;84.80
13268;DHT22;6702;47.068;15.458;2022-09-03T06:42:03;26.00;79.50
13268;DHT22;6702;47.068;15.458;2022-09-03T06:45:07;26.80;76.00
13268;DHT22;6702;47.068;15.458;2022-09-03T06:48:12;27.80;71.40
13268;DHT22;6702;47.068;15.458;2022-09-03T06:51:19;28.90;64.80
13268;DHT22;6702;47.068;15.458;2022-09-03T06:54:23;29.70;59.20
13268;DHT22;6702;47.068;15.458;2022-09-03T06:57:26;30.40;57.30
13268;DHT22;6702;47.068;15.458;2022-09-03T07:00:30;31.00;54.10
13268;DHT22;6702;47.068;15.458;2022-09-03T07:03:34;31.70;51.50
13268;DHT22;6702;47.068;15.458;2022-09-03T07:06:38;32.50;49.30
13268;DHT22;6702;47.068;15.458;2022-09-03T07:09:44;33.20;47.30
13268;DHT22;6702;47.068;15.458;2022-09-03T07:12:49;34.00;45.00
13268;DHT22;6702;47.068;15.458;2022-09-03T07:16:02;34.80;43.60
13268;DHT22;6702;47.068;15.458;2022-09-03T07:19:06;35.00;41.30
13268;DHT22;6702;47.068;15.458;2022-09-03T07:22:10;35.60;40.90
13268;DHT22;6702;47.068;15.458;2022-09-03T07:25:14;36.00;40.00
13268;DHT22;6702;47.068;15.458;2022-09-03T07:28:17;36.90;38.20
13268;DHT22;6702;47.068;15.458;2022-09-03T07:31:23;37.60;36.50
13268;DHT22;6702;47.068;15.458;2022-09-03T07:34:27;38.00;35.50
13268;DHT22;6702;47.068;15.458;2022-09-03T07:37:31;38.20;34.90
13268;DHT22;6702;47.068;15.458;2022-09-03T07:40:35;38.90;34.40
13268;DHT22;6702;47.068;15.458;2022-09-03T07:43:41;39.40;32.40
13268;DHT22;6702;47.068;15.458;2022-09-03T07:46:47;40.00;31.70
13268;DHT22;6702;47.068;15.458;2022-09-03T07:49:52;40.20;31.50
13268;DHT22;6702;47.068;15.458;2022-09-03T07:52:56;40.30;31.00
13268;DHT22;6702;47.068;15.458;2022-09-03T07:56:03;40.80;30.30
13268;DHT22;6702;47.068;15.458;2022-09-03T07:59:07;40.40;30.00
13268;DHT22;6702;47.068;15.458;2022-09-03T08:02:10;41.40;29.50
13268;DHT22;6702;47.068;15.458;2022-09-03T08:05:13;42.60;29.10
13268;DHT22;6702;47.068;15.458;2022-09-03T08:08:17;43.70;28.00
13268;DHT22;6702;47.068;15.458;2022-09-03T08:11:21;44.10;26.90
13268;DHT22;6702;47.068;15.458;2022-09-03T08:14:25;44.30;26.70
13268;DHT22;6702;47.068;15.458;2022-09-03T08:17:28;44.90;26.00
13268;DHT22;6702;47.068;15.458;2022-09-03T08:20:31;45.40;25.70
13268;DHT22;6702;47.068;15.458;2022-09-03T08:23:36;45.90;25.10
13268;DHT22;6702;47.068;15.458;2022-09-03T08:26:41;46.20;24.50
13268;DHT22;6702;47.068;15.458;2022-09-03T08:29:51;46.50;24.50
13268;DHT22;6702;47.068;15.458;2022-09-03T08:32:55;47.20;24.00
13268;DHT22;6702;47.068;15.458;2022-09-03T08:35:58;45.70;24.00
13268;DHT22;6702;47.068;15.458;2022-09-03T08:39:03;46.10;24.10
13268;DHT22;6702;47.068;15.458;2022-09-03T08:42:25;46.50;23.80
13268;DHT22;6702;47.068;15.458;2022-09-03T08:45:31;45.60;24.00
13268;DHT22;6702;47.068;15.458;2022-09-03T08:48:35;46.30;24.10
13268;DHT22;6702;47.068;15.458;2022-09-03T08:51:39;47.00;23.40
13268;DHT22;6702;47.068;15.458;2022-09-03T08:54:44;47.20;23.30
13268;DHT22;6702;47.068;15.458;2022-09-03T08:57:54;47.90;22.80
13268;DHT22;6702;47.068;15.458;2022-09-03T09:01:03;48.10;22.30
13268;DHT22;6702;47.068;15.458;2022-09-03T09:04:20;48.40;22.10
13268;DHT22;6702;47.068;15.458;2022-09-03T09:07:29;48.70;21.70
13268;DHT22;6702;47.068;15.458;2022-09-03T09:10:39;48.50;21.70
13268;DHT22;6702;47.068;15.458;2022-09-03T09:13:52;47.60;22.10
13268;DHT22;6702;47.068;15.458;2022-09-03T09:17:03;47.20;22.70
13268;DHT22;6702;47.068;15.458;2022-09-03T09:20:20;47.50;22.50
13268;DHT22;6702;47.068;15.458;2022-09-03T09:23:29;47.50;22.00
13268;DHT22;6702;47.068;15.458;2022-09-03T09:26:33;47.20;22.40
13268;DHT22;6702;47.068;15.458;2022-09-03T09:29:37;46.30;22.40
13268;DHT22;6702;47.068;15.458;2022-09-03T09:32:41;46.60;22.60
13268;DHT22;6702;47.068;15.458;2022-09-03T09:35:44;46.30;22.50
13268;DHT22;6702;47.068;15.458;2022-09-03T09:38:47;46.30;22.70
13268;DHT22;6702;47.068;15.458;2022-09-03T09:41:57;46.30;22.60
13268;DHT22;6702;47.068;15.458;2022-09-03T09:45:09;45.90;22.80
13268;DHT22;6702;47.068;15.458;2022-09-03T09:48:19;44.10;23.70
13268;DHT22;6702;47.068;15.458;2022-09-03T09:51:24;43.10;24.80
13268;DHT22;6702;47.068;15.458;2022-09-03T09:54:29;41.90;25.90
13268;DHT22;6702;47.068;15.458;2022-09-03T09:57:32;40.90;26.80
13268;DHT22;6702;47.068;15.458;2022-09-03T10:00:36;39.80;27.70
13268;DHT22;6702;47.068;15.458;2022-09-03T10:03:48;39.00;28.40
13268;DHT22;6702;47.068;15.458;2022-09-03T10:06:53;37.80;29.60
13268;DHT22;6702;47.068;15.458;2022-09-03T10:10:03;36.50;30.90
13268;DHT22;6702;47.068;15.458;2022-09-03T10:13:09;34.40;33.80
13268;DHT22;6702;47.068;15.458;2022-09-03T10:16:21;33.60;35.00
13268;DHT22;6702;47.068;15.458;2022-09-03T10:19:33;32.60;36.70
13268;DHT22;6702;47.068;15.458;2022-09-03T10:22:46;32.10;37.50
13268;DHT22;6702;47.068;15.458;2022-09-03T10:26:02;31.30;39.00
13268;DHT22;6702;47.068;15.458;2022-09-03T10:29:08;30.20;40.80
13268;DHT22;6702;47.068;15.458;2022-09-03T10:32:21;29.80;42.00
13268;DHT22;6702;47.068;15.458;2022-09-03T10:35:43;29.40;43.00
13268;DHT22;6702;47.068;15.458;2022-09-03T10:38:52;28.70;44.80
13268;DHT22;6702;47.068;15.458;2022-09-03T10:42:17;28.30;46.20
13268;DHT22;6702;47.068;15.458;2022-09-03T10:45:31;28.10;46.80
13268;DHT22;6702;47.068;15.458;2022-09-03T10:48:53;28.10;47.20
13268;DHT22;6702;47.068;15.458;2022-09-03T10:52:09;28.20;46.40
13268;DHT22;6702;47.068;15.458;2022-09-03T10:55:18;28.30;47.10
13268;DHT22;6702;47.068;15.458;2022-09-03T10:58:39;28.30;46.80
13268;DHT22;6702;47.068;15.458;2022-09-03T11:01:52;28.40;47.00
13268;DHT22;6702;47.068;15.458;2022-09-03T11:05:04;28.30;47.50
13268;DHT22;6702;47.068;15.458;2022-09-03T11:08:15;28.10;48.00
13268;DHT22;6702;47.068;15.458;2022-09-03T11:11:21;28.20;48.10
13268;DHT22;6702;47.068;15.458;2022-09-03T11:14:34;28.30;47.70
13268;DHT22;6702;47.068;15.458;2022-09-03T11:17:40;28.30;47.80
13268;DHT22;6702;47.068;15.458;2022-09-03T11:20:48;28.30;48.10
13268;DHT22;6702;47.068;15.458;2022-09-03T11:24:00;28.50;48.40
13268;DHT22;6702;47.068;15.458;2022-09-03T11:27:18;28.50;48.00
13268;DHT22;6702;47.068;15.458;2022-09-03T11:30:28;28.70;47.80
13268;DHT22;6702;47.068;15.458;2022-09-03T11:33:40;28.40;47.50
13268;DHT22;6702;47.068;15.458;2022-09-03T11:36:46;28.60;47.80
13268;DHT22;6702;47.068;15.458;2022-09-03T11:39:54;28.70;47.50
13268;DHT22;6702;47.068;15.458;2022-09-03T11:43:06;28.40;48.10
13268;DHT22;6702;47.068;15.458;2022-09-03T11:46:11;27.80;49.60
13268;DHT22;6702;47.068;15.458;2022-09-03T11:49:27;27.60;50.10
13268;DHT22;6702;47.068;15.458;2022-09-03T11:52:32;27.90;50.00
13268;DHT22;6702;47.068;15.458;2022-09-03T11:55:51;27.80;49.80
13268;DHT22;6702;47.068;15.458;2022-09-03T12:02:27;28.10;48.70
13268;DHT22;6702;47.068;15.458;2022-09-03T12:05:40;28.30;48.10
13268;DHT22;6702;47.068;15.458;2022-09-03T12:09:00;28.20;48.60
13268;DHT22;6702;47.068;15.458;2022-09-03T12:12:16;28.50;48.30
13268;DHT22;6702;47.068;15.458;2022-09-03T12:15:45;28.70;48.40
13268;DHT22;6702;47.068;15.458;2022-09-03T12:18:53;28.50;48.20
13268;DHT22;6702;47.068;15.458;2022-09-03T12:21:58;28.50;49.10
13268;DHT22;6702;47.068;15.458;2022-09-03T12:25:11;28.60;49.00
13268;DHT22;6702;47.068;15.458;2022-09-03T12:28:19;28.60;49.00
13268;DHT22;6702;47.068;15.458;2022-09-03T12:31:26;28.50;49.40
13268;DHT22;6702;47.068;15.458;2022-09-03T12:34:31;28.40;49.50
13268;DHT22;6702;47.068;15.458;2022-09-03T12:37:36;28.40;49.70
13268;DHT22;6702;47.068;15.458;2022-09-03T12:41:01;28.40;50.30
13268;DHT22;6702;47.068;15.458;2022-09-03T12:44:26;28.30;50.20
13268;DHT22;6702;47.068;15.458;2022-09-03T12:47:30;28.40;49.40
13268;DHT22;6702;47.068;15.458;2022-09-03T12:50:40;28.20;49.20
13268;DHT22;6702;47.068;15.458;2022-09-03T12:53:57;28.20;50.10
13268;DHT22;6702;47.068;15.458;2022-09-03T12:57:02;28.40;49.70
13268;DHT22;6702;47.068;15.458;2022-09-03T13:00:08;28.40;49.80
13268;DHT22;6702;47.068;15.458;2022-09-03T13:03:16;28.50;49.50
13268;DHT22;6702;47.068;15.458;2022-09-03T13:06:24;28.70;49.50
13268;DHT22;6702;47.068;15.458;2022-09-03T13:09:28;28.60;49.30
13268;DHT22;6702;47.068;15.458;2022-09-03T13:12:41;28.60;49.50
13268;DHT22;6702;47.068;15.458;2022-09-03T13:16:02;28.70;49.60
13268;DHT22;6702;47.068;15.458;2022-09-03T13:19:10;28.80;50.00
13268;DHT22;6702;47.068;15.458;2022-09-03T13:22:24;28.90;50.00
13268;DHT22;6702;47.068;15.458;2022-09-03T13:25:39;29.10;49.30
13268;DHT22;6702;47.068;15.458;2022-09-03T13:28:56;29.20;49.20
13268;DHT22;6702;47.068;15.458;2022-09-03T13:32:09;29.20;49.00
13268;DHT22;6702;47.068;15.458;2022-09-03T13:35:26;29.00;49.70
13268;DHT22;6702;47.068;15.458;2022-09-03T13:38:34;29.10;49.30
13268;DHT22;6702;47.068;15.458;2022-09-03T13:41:44;28.90;49.20
13268;DHT22;6702;47.068;15.458;2022-09-03T13:44:55;28.90;49.20
13268;DHT22;6702;47.068;15.458;2022-09-03T13:48:07;28.90;49.60
13268;DHT22;6702;47.068;15.458;2022-09-03T13:51:30;28.00;51.70
13268;DHT22;6702;47.068;15.458;2022-09-03T13:54:43;27.80;52.20
13268;DHT22;6702;47.068;15.458;2022-09-03T13:57:54;27.60;52.60
13268;DHT22;6702;47.068;15.458;2022-09-03T14:01:12;27.50;52.70
13268;DHT22;6702;47.068;15.458;2022-09-03T14:04:27;27.40;53.00
13268;DHT22;6702;47.068;15.458;2022-09-03T14:07:46;27.50;52.90
13268;DHT22;6702;47.068;15.458;2022-09-03T14:10:58;27.50;52.60
13268;DHT22;6702;47.068;15.458;2022-09-03T14:14:11;27.50;52.50
13268;DHT22;6702;47.068;15.458;2022-09-03T14:17:25;27.30;53.10
13268;DHT22;6702;47.068;15.458;2022-09-03T14:20:38;27.30;53.00
13268;DHT22;6702;47.068;15.458;2022-09-03T14:23:46;27.20;53.00
13268;DHT22;6702;47.068;15.458;2022-09-03T14:26:52;27.20;53.20
13268;DHT22;6702;47.068;15.458;2022-09-03T14:29:59;27.20;53.50
13268;DHT22;6702;47.068;15.458;2022-09-03T14:33:10;27.30;53.20
13268;DHT22;6702;47.068;15.458;2022-09-03T14:36:22;27.50;52.40
13268;DHT22;6702;47.068;15.458;2022-09-03T14:39:32;27.30;52.60
13268;DHT22;6702;47.068;15.458;2022-09-03T14:42:50;26.80;53.70
13268;DHT22;6702;47.068;15.458;2022-09-03T14:46:22;26.90;53.70
13268;DHT22;6702;47.068;15.458;2022-09-03T14:49:57;26.80;53.50
13268;DHT22;6702;47.068;15.458;2022-09-03T14:53:39;27.00;53.50
13268;DHT22;6702;47.068;15.458;2022-09-03T14:56:49;27.20;53.40
13268;DHT22;6702;47.068;15.458;2022-09-03T15:00:04;27.00;53.30
13268;DHT22;6702;47.068;15.458;2022-09-03T15:03:40;26.90;53.60
13268;DHT22;6702;47.068;15.458;2022-09-03T15:07:15;26.80;53.70
13268;DHT22;6702;47.068;15.458;2022-09-03T15:10:26;26.70;54.60
13268;DHT22;6702;47.068;15.458;2022-09-03T15:13:34;26.60;54.90
13268;DHT22;6702;47.068;15.458;2022-09-03T15:16:49;26.40;55.30
13268;DHT22;6702;47.068;15.458;2022-09-03T15:20:06;26.40;55.40
13268;DHT22;6702;47.068;15.458;2022-09-03T15:23:22;26.50;55.40
13268;DHT22;6702;47.068;15.458;2022-09-03T15:26:50;26.50;55.70
13268;DHT22;6702;47.068;15.458;2022-09-03T15:30:04;26.50;55.70
13268;DHT22;6702;47.068;15.458;2022-09-03T15:33:18;26.40;56.10
13268;DHT22;6702;47.068;15.458;2022-09-03T15:36:26;26.30;56.70
13268;DHT22;6702;47.068;15.458;2022-09-03T15:39:33;26.20;57.20
13268;DHT22;6702;47.068;15.458;2022-09-03T15:42:37;26.20;57.70
13268;DHT22;6702;47.068;15.458;2022-09-03T15:45:50;26.10;58.00
13268;DHT22;6702;47.068;15.458;2022-09-03T15:49:01;26.00;58.00
13268;DHT22;6702;47.068;15.458;2022-09-03T15:52:14;25.90;58.50
13268;DHT22;6702;47.068;15.458;2022-09-03T15:55:30;25.80;58.50
13268;DHT22;6702;47.068;15.458;2022-09-03T15:58:40;25.70;59.10
13268;DHT22;6702;47.068;15.458;2022-09-03T16:01:49;25.60;59.60
13268;DHT22;6702;47.068;15.458;2022-09-03T16:05:04;25.50;59.90
13268;DHT22;6702;47.068;15.458;2022-09-03T16:08:18;25.30;60.50
13268;DHT22;6702;47.068;15.458;2022-09-03T16:11:33;25.30;61.10
13268;DHT22;6702;47.068;15.458;2022-09-03T16:14:41;25.20;61.30
13268;DHT22;6702;47.068;15.458;2022-09-03T16:17:52;24.90;62.70
13268;DHT22;6702;47.068;15.458;2022-09-03T16:21:03;24.80;62.90
13268;DHT22;6702;47.068;15.458;2022-09-03T16:24:14;24.80;63.20
13268;DHT22;6702;47.068;15.458;2022-09-03T16:27:22;24.70;63.70
13268;DHT22;6702;47.068;15.458;2022-09-03T16:30:39;24.50;64.50
13268;DHT22;6702;47.068;15.458;2022-09-03T16:33:55;24.30;65.40
13268;DHT22;6702;47.068;15.458;2022-09-03T16:37:07;24.30;66.50
13268;DHT22;6702;47.068;15.458;2022-09-03T16:40:20;24.10;67.00
13268;DHT22;6702;47.068;15.458;2022-09-03T16:43:35;24.10;67.50
13268;DHT22;6702;47.068;15.458;2022-09-03T16:46:48;24.10;67.80
13268;DHT22;6702;47.068;15.458;2022-09-03T16:50:03;24.10;68.20
13268;DHT22;6702;47.068;15.458;2022-09-03T16:53:14;23.90;68.50
13268;DHT22;6702;47.068;15.458;2022-09-03T16:56:33;23.80;69.00
13268;DHT22;6702;47.068;15.458;2022-09-03T17:00:02;23.80;69.40
13268;DHT22;6702;47.068;15.458;2022-09-03T17:03:38;23.90;69.90
13268;DHT22;6702;47.068;15.458;2022-09-03T17:06:55;23.90;69.60
13268;DHT22;6702;47.068;15.458;2022-09-03T17:10:07;23.90;70.00
13268;DHT22;6702;47.068;15.458;2022-09-03T17:13:40;23.90;70.40
13268;DHT22;6702;47.068;15.458;2022-09-03T17:17:00;23.70;70.50
13268;DHT22;6702;47.068;15.458;2022-09-03T17:20:10;23.60;71.00
13268;DHT22;6702;47.068;15.458;2022-09-03T17:23:40;23.60;71.60
13268;DHT22;6702;47.068;15.458;2022-09-03T17:26:52;23.60;72.00
13268;DHT22;6702;47.068;15.458;2022-09-03T17:30:05;23.60;71.70
13268;DHT22;6702;47.068;15.458;2022-09-03T17:33:32;23.70;72.00
13268;DHT22;6702;47.068;15.458;2022-09-03T17:36:51;23.60;72.00
13268;DHT22;6702;47.068;15.458;2022-09-03T17:40:17;23.60;72.60
13268;DHT22;6702;47.068;15.458;2022-09-03T17:43:26;23.50;72.70
13268;DHT22;6702;47.068;15.458;2022-09-03T17:46:39;23.50;72.80
13268;DHT22;6702;47.068;15.458;2022-09-03T17:49:47;23.60;73.00
13268;DHT22;6702;47.068;15.458;2022-09-03T17:52:55;23.50;73.30
13268;DHT22;6702;47.068;15.458;2022-09-03T17:56:01;23.50;73.50
13268;DHT22;6702;47.068;15.458;2022-09-03T17:59:11;23.40;73.70
13268;DHT22;6702;47.068;15.458;2022-09-03T18:02:26;23.40;73.60
13268;DHT22;6702;47.068;15.458;2022-09-03T18:05:42;23.40;73.20
13268;DHT22;6702;47.068;15.458;2022-09-03T18:08:49;23.30;73.60
13268;DHT22;6702;47.068;15.458;2022-09-03T18:12:02;23.30;73.80
13268;DHT22;6702;47.068;15.458;2022-09-03T18:15:12;23.20;73.60
13268;DHT22;6702;47.068;15.458;2022-09-03T18:18:23;23.10;73.40
13268;DHT22;6702;47.068;15.458;2022-09-03T18:21:32;23.10;73.60
13268;DHT22;6702;47.068;15.458;2022-09-03T18:24:56;23.10;74.10
13268;DHT22;6702;47.068;15.458;2022-09-03T18:28:19;23.10;74.30
13268;DHT22;6702;47.068;15.458;2022-09-03T18:31:43;23.10;74.90
13268;DHT22;6702;47.068;15.458;2022-09-03T18:35:04;23.10;75.60
13268;DHT22;6702;47.068;15.458;2022-09-03T18:38:29;23.00;76.10
13268;DHT22;6702;47.068;15.458;2022-09-03T18:41:59;22.90;76.40
13268;DHT22;6702;47.068;15.458;2022-09-03T18:45:27;22.90;76.80
13268;DHT22;6702;47.068;15.458;2022-09-03T18:49:18;22.90;77.60
13268;DHT22;6702;47.068;15.458;2022-09-03T18:52:47;22.80;77.80
13268;DHT22;6702;47.068;15.458;2022-09-03T18:56:23;22.70;78.40
13268;DHT22;6702;47.068;15.458;2022-09-03T19:00:04;22.70;79.10
13268;DHT22;6702;47.068;15.458;2022-09-03T19:03:41;22.60;80.00
13268;DHT22;6702;47.068;15.458;2022-09-03T19:07:07;22.60;80.80
13268;DHT22;6702;47.068;15.458;2022-09-03T19:10:37;22.50;81.60
13268;DHT22;6702;47.068;15.458;2022-09-03T19:14:07;22.50;82.20
13268;DHT22;6702;47.068;15.458;2022-09-03T19:17:52;22.40;83.10
13268;DHT22;6702;47.068;15.458;2022-09-03T19:21:21;22.40;83.80
13268;DHT22;6702;47.068;15.458;2022-09-03T19:24:45;22.30;84.20
13268;DHT22;6702;47.068;15.458;2022-09-03T19:28:14;22.30;85.00
13268;DHT22;6702;47.068;15.458;2022-09-03T19:31:45;22.30;85.70
13268;DHT22;6702;47.068;15.458;2022-09-03T19:35:16;22.30;86.50
13268;DHT22;6702;47.068;15.458;2022-09-03T19:38:47;22.20;87.30
13268;DHT22;6702;47.068;15.458;2022-09-03T19:42:17;22.20;87.50
13268;DHT22;6702;47.068;15.458;2022-09-03T19:45:51;22.00;87.30
13268;DHT22;6702;47.068;15.458;2022-09-03T19:49:22;22.00;87.30
13268;DHT22;6702;47.068;15.458;2022-09-03T19:52:48;21.90;88.10
13268;DHT22;6702;47.068;15.458;2022-09-03T19:56:13;21.90;88.80
13268;DHT22;6702;47.068;15.458;2022-09-03T19:59:39;21.80;89.20
13268;DHT22;6702;47.068;15.458;2022-09-03T20:03:01;21.80;89.80
13268;DHT22;6702;47.068;15.458;2022-09-03T20:06:23;21.70;90.10
13268;DHT22;6702;47.068;15.458;2022-09-03T20:09:46;21.60;90.30
13268;DHT22;6702;47.068;15.458;2022-09-03T20:13:09;21.60;90.90